sensor_id;sensor_type;location;lat;lon;timestamp;pressure;altitude;pressure_sealevel;temperature;humidity
75428;BME280;64008;55.612;37.698;2022-10-16T00:00:57;100676.34;;;2.76;75.42
75428;BME280;64008;55.612;37.698;2022-10-16T00:03:22;100673.06;;;2.69;75.92
75428;BME280;64008;55.612;37.698;2022-10-16T00:05:48;100682.28;;;2.59;76.44
75428;BME280;64008;55.612;37.698;2022-10-16T00:08:13;100678.75;;;2.54;76.81
75428;BME280;64008;55.612;37.698;2022-10-16T00:10:39;100678.50;;;2.45;76.99
75428;BME280;64008;55.612;37.698;2022-10-16T00:13:06;100684.63;;;2.42;77.81
75428;BME280;64008;55.612;37.698;2022-10-16T00:15:36;100688.47;;;2.51;78.83
75428;BME280;64008;55.612;37.698;2022-10-16T00:18:03;100690.13;;;2.52;78.99
75428;BME280;64008;55.612;37.698;2022-10-16T00:20:28;100687.59;;;2.56;79.13
75428;BME280;64008;55.612;37.698;2022-10-16T00:22:54;100687.03;;;2.59;78.32
75428;BME280;64008;55.612;37.698;2022-10-16T00:25:19;100694.34;;;2.84;79.73
75428;BME280;64008;55.612;37.698;2022-10-16T00:27:45;100692.53;;;3.03;78.80
75428;BME280;64008;55.612;37.698;2022-10-16T00:30:10;100688.03;;;3.07;78.46
75428;BME280;64008;55.612;37.698;2022-10-16T00:32:36;100697.00;;;2.99;77.08
75428;BME280;64008;55.612;37.698;2022-10-16T00:35:02;100689.13;;;2.77;76.40
75428;BME280;64008;55.612;37.698;2022-10-16T00:37:29;100693.13;;;2.56;76.80
75428;BME280;64008;55.612;37.698;2022-10-16T00:39:54;100693.50;;;2.44;76.78
75428;BME280;64008;55.612;37.698;2022-10-16T00:42:19;100706.38;;;2.25;76.38
75428;BME280;64008;55.612;37.698;2022-10-16T00:44:55;100693.94;;;2.12;77.54
75428;BME280;64008;55.612;37.698;2022-10-16T00:47:43;100698.72;;;2.02;77.33
75428;BME280;64008;55.612;37.698;2022-10-16T00:50:27;100691.56;;;1.90;78.58
75428;BME280;64008;55.612;37.698;2022-10-16T00:52:54;100694.34;;;1.80;78.62
75428;BME280;64008;55.612;37.698;2022-10-16T00:55:20;100697.16;;;1.70;79.61
75428;BME280;64008;55.612;37.698;2022-10-16T00:57:45;100698.56;;;1.63;79.57
75428;BME280;64008;55.612;37.698;2022-10-16T01:00:16;100703.00;;;1.53;79.13
75428;BME280;64008;55.612;37.698;2022-10-16T01:02:42;100704.69;;;1.44;79.18
75428;BME280;64008;55.612;37.698;2022-10-16T01:05:08;100705.00;;;1.38;79.71
75428;BME280;64008;55.612;37.698;2022-10-16T01:10:28;100704.44;;;1.31;79.92
75428;BME280;64008;55.612;37.698;2022-10-16T01:13:12;100704.16;;;1.32;81.47
75428;BME280;64008;55.612;37.698;2022-10-16T01:21:12;100721.34;;;1.24;80.39
75428;BME280;64008;55.612;37.698;2022-10-16T01:29:27;100718.34;;;0.95;80.09
75428;BME280;64008;55.612;37.698;2022-10-16T01:31:59;100722.19;;;0.94;81.04
75428;BME280;64008;55.612;37.698;2022-10-16T01:34:32;100726.34;;;0.92;80.93
75428;BME280;64008;55.612;37.698;2022-10-16T01:37:09;100711.38;;;0.77;80.98
75428;BME280;64008;55.612;37.698;2022-10-16T01:39:38;100721.63;;;0.82;80.84
75428;BME280;64008;55.612;37.698;2022-10-16T01:42:12;100732.13;;;0.80;81.77
75428;BME280;64008;55.612;37.698;2022-10-16T01:44:40;100735.47;;;0.82;82.86
75428;BME280;64008;55.612;37.698;2022-10-16T01:47:09;100732.44;;;0.79;82.17
75428;BME280;64008;55.612;37.698;2022-10-16T01:49:37;100732.44;;;0.79;82.37
75428;BME280;64008;55.612;37.698;2022-10-16T01:52:10;100714.97;;;0.68;82.16
75428;BME280;64008;55.612;37.698;2022-10-16T01:54:40;100727.16;;;0.77;82.92
75428;BME280;64008;55.612;37.698;2022-10-16T01:57:07;100728.56;;;0.80;82.50
75428;BME280;64008;55.612;37.698;2022-10-16T01:59:37;100736.88;;;0.80;83.35
75428;BME280;64008;55.612;37.698;2022-10-16T02:02:07;100733.53;;;0.77;82.58
75428;BME280;64008;55.612;37.698;2022-10-16T02:04:37;100739.91;;;0.83;83.18
75428;BME280;64008;55.612;37.698;2022-10-16T02:07:04;100735.22;;;0.94;84.24
75428;BME280;64008;55.612;37.698;2022-10-16T02:09:33;100735.47;;;0.97;84.08
75428;BME280;64008;55.612;37.698;2022-10-16T02:12:01;100734.09;;;1.00;83.48
75428;BME280;64008;55.612;37.698;2022-10-16T02:14:28;100733.28;;;0.99;83.58
75428;BME280;64008;55.612;37.698;2022-10-16T02:16:54;100741.31;;;0.96;83.18
75428;BME280;64008;55.612;37.698;2022-10-16T02:19:20;100736.03;;;0.89;82.99
75428;BME280;64008;55.612;37.698;2022-10-16T02:24:20;100736.56;;;0.76;82.60
75428;BME280;64008;55.612;37.698;2022-10-16T02:26:58;100740.44;;;0.70;82.90
75428;BME280;64008;55.612;37.698;2022-10-16T02:29:26;100735.44;;;0.67;83.04
75428;BME280;64008;55.612;37.698;2022-10-16T02:31:56;100744.59;;;0.67;83.36
75428;BME280;64008;55.612;37.698;2022-10-16T02:34:24;100737.13;;;0.63;83.55
75428;BME280;64008;55.612;37.698;2022-10-16T02:36:50;100740.97;;;0.62;83.59
75428;BME280;64008;55.612;37.698;2022-10-16T02:39:18;100740.69;;;0.58;83.40
75428;BME280;64008;55.612;37.698;2022-10-16T02:41:44;100746.53;;;0.62;84.48
75428;BME280;64008;55.612;37.698;2022-10-16T02:44:10;100742.34;;;0.59;84.35
75428;BME280;64008;55.612;37.698;2022-10-16T02:46:36;100747.88;;;0.59;84.20
75428;BME280;64008;55.612;37.698;2022-10-16T02:49:01;100749.28;;;0.62;84.76
75428;BME280;64008;55.612;37.698;2022-10-16T02:51:26;100746.50;;;0.67;85.34
75428;BME280;64008;55.612;37.698;2022-10-16T02:53:52;100750.69;;;0.69;84.81
75428;BME280;64008;55.612;37.698;2022-10-16T02:56:17;100752.88;;;0.72;85.41
75428;BME280;64008;55.612;37.698;2022-10-16T02:58:44;100751.78;;;0.68;85.05
75428;BME280;64008;55.612;37.698;2022-10-16T03:01:09;100756.75;;;0.66;84.65
75428;BME280;64008;55.612;37.698;2022-10-16T03:03:35;100762.28;;;0.66;84.55
75428;BME280;64008;55.612;37.698;2022-10-16T03:06:00;100759.81;;;0.70;84.36
75428;BME280;64008;55.612;37.698;2022-10-16T03:08:25;100753.16;;;0.66;83.95
75428;BME280;64008;55.612;37.698;2022-10-16T03:10:51;100754.28;;;0.75;84.38
75428;BME280;64008;55.612;37.698;2022-10-16T03:13:17;100763.72;;;0.79;84.47
75428;BME280;64008;55.612;37.698;2022-10-16T03:15:43;100757.88;;;0.81;85.04
75428;BME280;64008;55.612;37.698;2022-10-16T03:18:09;100761.78;;;0.80;84.86
75428;BME280;64008;55.612;37.698;2022-10-16T03:20:34;100762.59;;;0.80;85.53
75428;BME280;64008;55.612;37.698;2022-10-16T03:23:00;100763.69;;;0.69;84.79
75428;BME280;64008;55.612;37.698;2022-10-16T03:25:25;100765.88;;;0.67;84.89
75428;BME280;64008;55.612;37.698;2022-10-16T03:27:51;100766.72;;;0.67;84.64
75428;BME280;64008;55.612;37.698;2022-10-16T03:30:17;100769.75;;;0.66;84.22
75428;BME280;64008;55.612;37.698;2022-10-16T03:32:44;100773.09;;;0.68;84.51
75428;BME280;64008;55.612;37.698;2022-10-16T03:35:10;100768.09;;;0.65;85.18
75428;BME280;64008;55.612;37.698;2022-10-16T03:37:35;100767.25;;;0.64;85.28
75428;BME280;64008;55.612;37.698;2022-10-16T03:40:01;100778.63;;;0.68;85.81
75428;BME280;64008;55.612;37.698;2022-10-16T03:42:27;100780.84;;;0.66;85.52
75428;BME280;64008;55.612;37.698;2022-10-16T03:44:53;100773.63;;;0.65;85.59
75428;BME280;64008;55.612;37.698;2022-10-16T03:47:18;100772.25;;;0.62;85.32
75428;BME280;64008;55.612;37.698;2022-10-16T03:49:49;100775.28;;;0.66;85.58
75428;BME280;64008;55.612;37.698;2022-10-16T03:52:15;100775.88;;;0.68;85.48
75428;BME280;64008;55.612;37.698;2022-10-16T03:54:40;100772.53;;;0.66;84.45
75428;BME280;64008;55.612;37.698;2022-10-16T03:57:06;100774.75;;;0.64;84.76
75428;BME280;64008;55.612;37.698;2022-10-16T03:59:32;100775.28;;;0.56;83.91
75428;BME280;64008;55.612;37.698;2022-10-16T04:01:57;100776.66;;;0.58;84.64
75428;BME280;64008;55.612;37.698;2022-10-16T04:04:23;100776.94;;;0.57;84.99
75428;BME280;64008;55.612;37.698;2022-10-16T04:06:50;100775.81;;;0.58;85.56
75428;BME280;64008;55.612;37.698;2022-10-16T04:09:15;100780.25;;;0.59;84.72
75428;BME280;64008;55.612;37.698;2022-10-16T04:11:41;100781.66;;;0.66;85.75
75428;BME280;64008;55.612;37.698;2022-10-16T04:14:06;100778.63;;;0.63;85.45
75428;BME280;64008;55.612;37.698;2022-10-16T04:16:32;100780.81;;;0.61;85.43
75428;BME280;64008;55.612;37.698;2022-10-16T04:18:57;100783.31;;;0.62;84.65
75428;BME280;64008;55.612;37.698;2022-10-16T04:21:23;100784.69;;;0.60;84.52
75428;BME280;64008;55.612;37.698;2022-10-16T04:23:48;100780.00;;;0.60;84.96
75428;BME280;64008;55.612;37.698;2022-10-16T04:26:14;100784.44;;;0.61;84.78
75428;BME280;64008;55.612;37.698;2022-10-16T04:28:40;100781.94;;;0.65;85.22
75428;BME280;64008;55.612;37.698;2022-10-16T04:31:06;100782.50;;;0.67;85.00
75428;BME280;64008;55.612;37.698;2022-10-16T04:33:32;100780.28;;;0.74;85.44
75428;BME280;64008;55.612;37.698;2022-10-16T04:36:00;100791.41;;;0.79;84.87
75428;BME280;64008;55.612;37.698;2022-10-16T04:38:26;100789.47;;;0.90;84.50
75428;BME280;64008;55.612;37.698;2022-10-16T04:40:51;100791.97;;;0.96;84.91
75428;BME280;64008;55.612;37.698;2022-10-16T04:43:17;100800.28;;;1.01;84.63
75428;BME280;64008;55.612;37.698;2022-10-16T04:45:43;100792.00;;;1.01;84.93
75428;BME280;64008;55.612;37.698;2022-10-16T04:48:08;100787.81;;;1.04;84.74
75428;BME280;64008;55.612;37.698;2022-10-16T04:50:34;100798.38;;;1.17;83.98
75428;BME280;64008;55.612;37.698;2022-10-16T04:52:59;100798.63;;;1.21;83.77
75428;BME280;64008;55.612;37.698;2022-10-16T04:55:25;100796.16;;;1.24;83.42
75428;BME280;64008;55.612;37.698;2022-10-16T04:57:50;100798.09;;;1.29;83.31
75428;BME280;64008;55.612;37.698;2022-10-16T05:00:16;100795.34;;;1.34;83.43
75428;BME280;64008;55.612;37.698;2022-10-16T05:02:41;100799.50;;;1.41;82.90
75428;BME280;64008;55.612;37.698;2022-10-16T05:05:07;100798.66;;;1.41;83.02
75428;BME280;64008;55.612;37.698;2022-10-16T05:07:33;100807.22;;;1.70;84.81
75428;BME280;64008;55.612;37.698;2022-10-16T05:09:58;100794.13;;;2.06;84.39
75428;BME280;64008;55.612;37.698;2022-10-16T05:12:24;100804.31;;;2.25;82.56
75428;BME280;64008;55.612;37.698;2022-10-16T05:14:49;100808.44;;;2.38;82.21
75428;BME280;64008;55.612;37.698;2022-10-16T05:17:14;100795.66;;;2.47;80.20
75428;BME280;64008;55.612;37.698;2022-10-16T05:19:40;100794.25;;;2.45;80.28
75428;BME280;64008;55.612;37.698;2022-10-16T05:22:05;100798.66;;;2.51;79.36
75428;BME280;64008;55.612;37.698;2022-10-16T05:24:31;100800.66;;;2.45;78.69
75428;BME280;64008;55.612;37.698;2022-10-16T05:26:56;100806.13;;;2.60;78.64
75428;BME280;64008;55.612;37.698;2022-10-16T05:29:22;100809.19;;;2.59;78.46
75428;BME280;64008;55.612;37.698;2022-10-16T05:31:50;100807.72;;;2.72;79.30
75428;BME280;64008;55.612;37.698;2022-10-16T05:34:16;100802.19;;;2.66;77.66
75428;BME280;64008;55.612;37.698;2022-10-16T05:36:41;100807.25;;;2.59;77.46
75428;BME280;64008;55.612;37.698;2022-10-16T05:39:06;100804.50;;;2.49;78.45
75428;BME280;64008;55.612;37.698;2022-10-16T05:41:32;100816.75;;;2.43;79.20
75428;BME280;64008;55.612;37.698;2022-10-16T05:43:58;100819.25;;;2.40;79.34
75428;BME280;64008;55.612;37.698;2022-10-16T05:46:23;100816.47;;;2.40;79.44
75428;BME280;64008;55.612;37.698;2022-10-16T05:48:51;100813.94;;;2.48;78.83
75428;BME280;64008;55.612;37.698;2022-10-16T05:51:18;100814.78;;;2.54;79.29
75428;BME280;64008;55.612;37.698;2022-10-16T05:53:43;100809.69;;;2.66;79.67
75428;BME280;64008;55.612;37.698;2022-10-16T05:56:10;100826.63;;;2.69;78.94
75428;BME280;64008;55.612;37.698;2022-10-16T05:58:37;100826.03;;;2.73;79.03
75428;BME280;64008;55.612;37.698;2022-10-16T06:01:13;100818.81;;;2.77;78.74
75428;BME280;64008;55.612;37.698;2022-10-16T06:03:39;100827.94;;;2.82;78.51
75428;BME280;64008;55.612;37.698;2022-10-16T06:06:22;100821.56;;;2.82;78.66
75428;BME280;64008;55.612;37.698;2022-10-16T06:08:49;100832.34;;;2.93;78.13
75428;BME280;64008;55.612;37.698;2022-10-16T06:11:17;100831.19;;;2.99;78.63
75428;BME280;64008;55.612;37.698;2022-10-16T06:13:43;100830.59;;;3.07;78.38
75428;BME280;64008;55.612;37.698;2022-10-16T06:16:11;100836.88;;;3.23;77.53
75428;BME280;64008;55.612;37.698;2022-10-16T06:18:37;100835.41;;;3.31;77.12
75428;BME280;64008;55.612;37.698;2022-10-16T06:21:08;100836.75;;;3.38;77.47
75428;BME280;64008;55.612;37.698;2022-10-16T06:23:35;100838.69;;;3.43;77.41
75428;BME280;64008;55.612;37.698;2022-10-16T06:26:10;100832.81;;;3.44;77.66
75428;BME280;64008;55.612;37.698;2022-10-16T06:28:36;100827.78;;;3.46;77.26
75428;BME280;64008;55.612;37.698;2022-10-16T06:31:03;100834.41;;;3.56;77.13
75428;BME280;64008;55.612;37.698;2022-10-16T06:33:29;100834.75;;;3.78;77.50
75428;BME280;64008;55.612;37.698;2022-10-16T06:36:03;100835.41;;;3.99;76.45
75428;BME280;64008;55.612;37.698;2022-10-16T06:38:30;100838.25;;;4.17;76.83
75428;BME280;64008;55.612;37.698;2022-10-16T06:40:55;100835.72;;;4.21;75.69
75428;BME280;64008;55.612;37.698;2022-10-16T06:43:21;100838.38;;;4.31;74.93
75428;BME280;64008;55.612;37.698;2022-10-16T06:45:53;100841.31;;;4.45;74.90
75428;BME280;64008;55.612;37.698;2022-10-16T06:48:20;100835.97;;;4.48;73.18
75428;BME280;64008;55.612;37.698;2022-10-16T06:50:56;100843.16;;;4.54;74.05
75428;BME280;64008;55.612;37.698;2022-10-16T06:53:22;100845.22;;;4.68;73.50
75428;BME280;64008;55.612;37.698;2022-10-16T06:55:48;100850.94;;;4.76;74.37
75428;BME280;64008;55.612;37.698;2022-10-16T06:58:13;100848.63;;;4.83;74.14
75428;BME280;64008;55.612;37.698;2022-10-16T07:00:39;100856.31;;;4.91;74.67
75428;BME280;64008;55.612;37.698;2022-10-16T07:03:04;100839.31;;;4.93;74.05
75428;BME280;64008;55.612;37.698;2022-10-16T07:05:30;100850.84;;;5.05;73.90
75428;BME280;64008;55.612;37.698;2022-10-16T07:07:55;100854.22;;;5.21;73.39
75428;BME280;64008;55.612;37.698;2022-10-16T07:10:20;100859.22;;;5.24;72.91
75428;BME280;64008;55.612;37.698;2022-10-16T07:12:49;100865.09;;;5.22;71.85
75428;BME280;64008;55.612;37.698;2022-10-16T07:15:15;100848.91;;;5.24;71.76
75428;BME280;64008;55.612;37.698;2022-10-16T07:17:40;100859.97;;;5.29;70.46
75428;BME280;64008;55.612;37.698;2022-10-16T07:20:06;100858.16;;;5.38;71.33
75428;BME280;64008;55.612;37.698;2022-10-16T07:22:32;100857.88;;;5.40;70.72
75428;BME280;64008;55.612;37.698;2022-10-16T07:24:57;100865.31;;;5.45;70.97
75428;BME280;64008;55.612;37.698;2022-10-16T07:27:23;100874.44;;;5.50;70.31
75428;BME280;64008;55.612;37.698;2022-10-16T07:29:49;100865.47;;;5.53;70.02
75428;BME280;64008;55.612;37.698;2022-10-16T07:32:15;100857.31;;;5.57;70.63
75428;BME280;64008;55.612;37.698;2022-10-16T07:34:40;100861.69;;;5.63;69.47
75428;BME280;64008;55.612;37.698;2022-10-16T07:37:06;100860.75;;;5.67;69.80
75428;BME280;64008;55.612;37.698;2022-10-16T07:39:32;100863.38;;;5.77;70.76
75428;BME280;64008;55.612;37.698;2022-10-16T07:41:58;100858.78;;;5.87;69.91
75428;BME280;64008;55.612;37.698;2022-10-16T07:44:23;100862.03;;;5.94;70.08
75428;BME280;64008;55.612;37.698;2022-10-16T07:46:48;100857.94;;;6.05;68.40
75428;BME280;64008;55.612;37.698;2022-10-16T07:49:14;100854.44;;;6.13;68.60
75428;BME280;64008;55.612;37.698;2022-10-16T07:51:39;100853.22;;;6.19;67.58
75428;BME280;64008;55.612;37.698;2022-10-16T07:54:05;100852.50;;;6.27;67.59
75428;BME280;64008;55.612;37.698;2022-10-16T07:56:31;100856.13;;;6.41;67.13
75428;BME280;64008;55.612;37.698;2022-10-16T07:58:57;100848.09;;;6.53;65.53
75428;BME280;64008;55.612;37.698;2022-10-16T08:01:24;100847.78;;;6.69;65.00
75428;BME280;64008;55.612;37.698;2022-10-16T08:03:51;100855.63;;;6.80;63.77
75428;BME280;64008;55.612;37.698;2022-10-16T08:06:18;100862.84;;;6.95;66.48
75428;BME280;64008;55.612;37.698;2022-10-16T08:08:44;100859.94;;;7.14;64.02
75428;BME280;64008;55.612;37.698;2022-10-16T08:11:10;100852.97;;;7.25;63.71
75428;BME280;64008;55.612;37.698;2022-10-16T08:13:35;100858.00;;;7.37;63.17
75428;BME280;64008;55.612;37.698;2022-10-16T08:16:01;100861.53;;;7.42;62.84
75428;BME280;64008;55.612;37.698;2022-10-16T08:18:28;100852.03;;;7.52;63.49
75428;BME280;64008;55.612;37.698;2022-10-16T08:20:58;100863.22;;;7.65;63.84
75428;BME280;64008;55.612;37.698;2022-10-16T08:23:25;100864.81;;;7.80;63.81
75428;BME280;64008;55.612;37.698;2022-10-16T08:25:52;100863.06;;;7.93;61.65
75428;BME280;64008;55.612;37.698;2022-10-16T08:28:18;100865.03;;;8.15;61.98
75428;BME280;64008;55.612;37.698;2022-10-16T08:30:44;100855.56;;;9.12;62.00
75428;BME280;64008;55.612;37.698;2022-10-16T08:33:09;100848.78;;;11.80;56.57
75428;BME280;64008;55.612;37.698;2022-10-16T08:35:35;100862.53;;;13.97;47.96
75428;BME280;64008;55.612;37.698;2022-10-16T08:38:06;100867.09;;;15.71;47.27
75428;BME280;64008;55.612;37.698;2022-10-16T08:40:33;100872.56;;;17.29;45.91
75428;BME280;64008;55.612;37.698;2022-10-16T08:48:51;100870.78;;;20.38;38.81
75428;BME280;64008;55.612;37.698;2022-10-16T08:51:30;100865.25;;;21.23;33.73
75428;BME280;64008;55.612;37.698;2022-10-16T08:54:00;100871.75;;;20.98;33.00
75428;BME280;64008;55.612;37.698;2022-10-16T08:56:27;100866.88;;;21.27;30.95
75428;BME280;64008;55.612;37.698;2022-10-16T08:58:53;100870.53;;;21.49;34.10
75428;BME280;64008;55.612;37.698;2022-10-16T09:01:21;100871.31;;;22.69;30.50
75428;BME280;64008;55.612;37.698;2022-10-16T09:09:30;100874.66;;;24.04;27.33
75428;BME280;64008;55.612;37.698;2022-10-16T09:20:25;100873.84;;;24.42;24.55
75428;BME280;64008;55.612;37.698;2022-10-16T09:23:07;100874.47;;;24.26;23.31
75428;BME280;64008;55.612;37.698;2022-10-16T09:25:34;100864.19;;;24.25;23.37
75428;BME280;64008;55.612;37.698;2022-10-16T09:28:00;100858.66;;;24.41;23.36
75428;BME280;64008;55.612;37.698;2022-10-16T09:30:28;100862.00;;;24.02;23.04
75428;BME280;64008;55.612;37.698;2022-10-16T09:32:54;100865.13;;;24.15;23.35
75428;BME280;64008;55.612;37.698;2022-10-16T09:35:32;100857.94;;;24.33;22.77
75428;BME280;64008;55.612;37.698;2022-10-16T09:37:58;100856.41;;;24.25;22.25
75428;BME280;64008;55.612;37.698;2022-10-16T09:40:38;100857.88;;;24.37;22.06
75428;BME280;64008;55.612;37.698;2022-10-16T09:46:03;100859.22;;;25.83;20.55
75428;BME280;64008;55.612;37.698;2022-10-16T09:48:49;100855.34;;;25.93;20.09
75428;BME280;64008;55.612;37.698;2022-10-16T09:54:13;100857.97;;;26.04;19.77
75428;BME280;64008;55.612;37.698;2022-10-16T09:56:39;100861.56;;;25.68;19.70
75428;BME280;64008;55.612;37.698;2022-10-16T09:59:11;100854.16;;;24.67;20.77
75428;BME280;64008;55.612;37.698;2022-10-16T10:01:39;100840.94;;;24.73;21.05
75428;BME280;64008;55.612;37.698;2022-10-16T10:04:06;100852.78;;;25.95;20.27
75428;BME280;64008;55.612;37.698;2022-10-16T10:12:00;100857.50;;;27.00;17.90
75428;BME280;64008;55.612;37.698;2022-10-16T10:14:31;100856.47;;;26.39;18.59
75428;BME280;64008;55.612;37.698;2022-10-16T10:20:00;100855.47;;;26.65;18.76
75428;BME280;64008;55.612;37.698;2022-10-16T10:27:59;100845.72;;;26.39;19.33
75428;BME280;64008;55.612;37.698;2022-10-16T10:42:05;100846.66;;;27.86;17.57
75428;BME280;64008;55.612;37.698;2022-10-16T10:50:43;100839.94;;;26.00;19.02
75428;BME280;64008;55.612;37.698;2022-10-16T10:56:16;100830.72;;;22.08;22.80
75428;BME280;64008;55.612;37.698;2022-10-16T11:07:05;100806.38;;;21.15;25.33
75428;BME280;64008;55.612;37.698;2022-10-16T11:09:40;100807.50;;;22.58;24.09
75428;BME280;64008;55.612;37.698;2022-10-16T11:12:27;100826.91;;;23.84;21.92
75428;BME280;64008;55.612;37.698;2022-10-16T11:15:14;100819.25;;;23.29;22.45
75428;BME280;64008;55.612;37.698;2022-10-16T11:17:47;100827.00;;;22.87;23.41
75428;BME280;64008;55.612;37.698;2022-10-16T11:22:51;100813.97;;;21.92;23.95
75428;BME280;64008;55.612;37.698;2022-10-16T11:30:57;100802.88;;;24.62;22.64
75428;BME280;64008;55.612;37.698;2022-10-16T11:36:49;100804.44;;;26.22;19.69
75428;BME280;64008;55.612;37.698;2022-10-16T11:39:20;100801.69;;;26.55;19.63
75428;BME280;64008;55.612;37.698;2022-10-16T11:41:52;100804.78;;;26.08;19.76
75428;BME280;64008;55.612;37.698;2022-10-16T11:47:41;100794.81;;;25.93;20.30
75428;BME280;64008;55.612;37.698;2022-10-16T11:50:39;100805.00;;;26.17;19.60
75428;BME280;64008;55.612;37.698;2022-10-16T11:55:54;100795.31;;;25.68;20.16
75428;BME280;64008;55.612;37.698;2022-10-16T11:58:30;100804.91;;;25.81;19.86
75428;BME280;64008;55.612;37.698;2022-10-16T12:08:44;100789.66;;;26.40;18.99
75428;BME280;64008;55.612;37.698;2022-10-16T12:16:51;100781.31;;;19.29;26.63
75428;BME280;64008;55.612;37.698;2022-10-16T12:19:18;100779.41;;;17.18;29.89
75428;BME280;64008;55.612;37.698;2022-10-16T12:21:45;100784.63;;;15.60;31.21
75428;BME280;64008;55.612;37.698;2022-10-16T12:24:36;100781.19;;;14.22;34.32
75428;BME280;64008;55.612;37.698;2022-10-16T12:27:04;100771.78;;;13.47;35.83
75428;BME280;64008;55.612;37.698;2022-10-16T12:29:41;100771.63;;;13.03;36.32
75428;BME280;64008;55.612;37.698;2022-10-16T12:32:35;100766.72;;;12.51;40.01
75428;BME280;64008;55.612;37.698;2022-10-16T12:35:02;100755.16;;;12.32;39.70
75428;BME280;64008;55.612;37.698;2022-10-16T12:37:36;100754.00;;;12.21;38.63
75428;BME280;64008;55.612;37.698;2022-10-16T12:42:47;100752.41;;;11.87;42.01
75428;BME280;64008;55.612;37.698;2022-10-16T12:47:55;100745.66;;;11.59;42.80
75428;BME280;64008;55.612;37.698;2022-10-16T12:50:30;100749.53;;;11.54;41.66
75428;BME280;64008;55.612;37.698;2022-10-16T12:52:57;100747.75;;;11.49;42.28
75428;BME280;64008;55.612;37.698;2022-10-16T12:55:23;100749.69;;;11.37;42.59
75428;BME280;64008;55.612;37.698;2022-10-16T13:00:40;100755.41;;;11.28;42.84
75428;BME280;64008;55.612;37.698;2022-10-16T13:11:51;100758.50;;;11.15;44.32
75428;BME280;64008;55.612;37.698;2022-10-16T13:14:53;100756.41;;;11.03;44.89
75428;BME280;64008;55.612;37.698;2022-10-16T13:21:03;100749.41;;;10.88;45.08
75428;BME280;64008;55.612;37.698;2022-10-16T13:23:38;100748.72;;;10.91;45.05
75428;BME280;64008;55.612;37.698;2022-10-16T13:28:38;100762.69;;;10.79;46.20
75428;BME280;64008;55.612;37.698;2022-10-16T13:31:05;100748.00;;;10.73;45.66
75428;BME280;64008;55.612;37.698;2022-10-16T13:33:45;100751.88;;;10.69;46.18
75428;BME280;64008;55.612;37.698;2022-10-16T13:36:22;100754.84;;;10.64;45.92
75428;BME280;64008;55.612;37.698;2022-10-16T13:38:48;100749.94;;;10.61;46.21
75428;BME280;64008;55.612;37.698;2022-10-16T13:41:16;100756.41;;;10.53;47.15
75428;BME280;64008;55.612;37.698;2022-10-16T13:43:48;100746.50;;;10.47;46.17
75428;BME280;64008;55.612;37.698;2022-10-16T13:46:16;100744.56;;;10.39;46.51
75428;BME280;64008;55.612;37.698;2022-10-16T13:48:42;100746.63;;;10.29;46.39
75428;BME280;64008;55.612;37.698;2022-10-16T13:51:16;100754.88;;;10.26;46.87
75428;BME280;64008;55.612;37.698;2022-10-16T13:53:44;100744.66;;;10.13;48.18
75428;BME280;64008;55.612;37.698;2022-10-16T13:56:15;100749.63;;;10.07;49.13
75428;BME280;64008;55.612;37.698;2022-10-16T13:58:42;100750.00;;;9.97;48.04
75428;BME280;64008;55.612;37.698;2022-10-16T14:01:25;100751.31;;;9.91;48.88
75428;BME280;64008;55.612;37.698;2022-10-16T14:03:53;100743.94;;;9.78;49.01
75428;BME280;64008;55.612;37.698;2022-10-16T14:06:26;100748.75;;;9.60;48.98
75428;BME280;64008;55.612;37.698;2022-10-16T14:11:23;100744.28;;;9.50;48.94
75428;BME280;64008;55.612;37.698;2022-10-16T14:13:50;100736.72;;;9.42;49.78
75428;BME280;64008;55.612;37.698;2022-10-16T14:16:27;100734.72;;;9.34;50.39
75428;BME280;64008;55.612;37.698;2022-10-16T14:19:04;100742.19;;;9.21;51.52
75428;BME280;64008;55.612;37.698;2022-10-16T14:21:32;100739.69;;;9.11;51.37
75428;BME280;64008;55.612;37.698;2022-10-16T14:23:58;100744.84;;;9.09;51.03
75428;BME280;64008;55.612;37.698;2022-10-16T14:26:27;100737.06;;;9.06;51.71
75428;BME280;64008;55.612;37.698;2022-10-16T14:29:10;100739.69;;;9.03;51.31
75428;BME280;64008;55.612;37.698;2022-10-16T14:31:36;100743.69;;;9.02;52.05
75428;BME280;64008;55.612;37.698;2022-10-16T14:34:02;100751.28;;;9.01;52.32
75428;BME280;64008;55.612;37.698;2022-10-16T14:36:29;100748.28;;;8.98;52.05
75428;BME280;64008;55.612;37.698;2022-10-16T14:39:17;100742.34;;;8.91;52.16
75428;BME280;64008;55.612;37.698;2022-10-16T14:41:47;100744.94;;;8.78;52.38
75428;BME280;64008;55.612;37.698;2022-10-16T14:44:13;100752.34;;;8.66;52.69
75428;BME280;64008;55.612;37.698;2022-10-16T14:46:41;100750.53;;;8.61;53.25
75428;BME280;64008;55.612;37.698;2022-10-16T14:51:40;100752.31;;;8.57;53.58
75428;BME280;64008;55.612;37.698;2022-10-16T14:54:09;100747.03;;;8.56;53.87
75428;BME280;64008;55.612;37.698;2022-10-16T14:56:49;100745.88;;;8.48;53.65
75428;BME280;64008;55.612;37.698;2022-10-16T15:02:16;100758.38;;;8.42;53.65
75428;BME280;64008;55.612;37.698;2022-10-16T15:04:43;100749.63;;;8.35;54.26
75428;BME280;64008;55.612;37.698;2022-10-16T15:07:08;100755.88;;;8.32;54.48
75428;BME280;64008;55.612;37.698;2022-10-16T15:09:34;100757.28;;;8.21;54.47
75428;BME280;64008;55.612;37.698;2022-10-16T15:11:59;100756.28;;;8.17;54.57
75428;BME280;64008;55.612;37.698;2022-10-16T15:14:25;100756.09;;;8.13;54.63
75428;BME280;64008;55.612;37.698;2022-10-16T15:16:50;100759.03;;;8.08;54.63
75428;BME280;64008;55.612;37.698;2022-10-16T15:19:16;100766.81;;;8.11;55.28
75428;BME280;64008;55.612;37.698;2022-10-16T15:21:43;100757.53;;;8.02;54.73